createdAt,value
2023-02-07T00:01:19.169Z,9.48
2023-02-07T00:03:46.273Z,9.32
2023-02-07T00:06:16.098Z,10.75
2023-02-07T00:08:43.538Z,10.27
2023-02-07T00:11:16.394Z,10.10
2023-02-07T00:13:44.704Z,16.23
2023-02-07T00:16:12.238Z,10.30
2023-02-07T00:18:39.226Z,15.10
2023-02-07T00:21:11.757Z,13.70
2023-02-07T00:23:39.222Z,7.85
2023-02-07T00:26:07.501Z,8.05
2023-02-07T00:28:34.758Z,10.57
2023-02-07T00:31:07.572Z,53.03
2023-02-07T00:33:36.300Z,65.15
2023-02-07T00:36:05.627Z,18.80
2023-02-07T00:38:32.419Z,14.77
2023-02-07T00:41:01.549Z,21.45
2023-02-07T00:43:30.366Z,79.72
2023-02-07T00:46:02.655Z,52.17
2023-02-07T00:48:30.753Z,49.40
2023-02-07T00:50:58.175Z,85.00
2023-02-07T00:53:26.413Z,39.53
2023-02-07T00:55:53.330Z,40.30
2023-02-07T00:58:20.266Z,56.58
2023-02-07T01:00:47.288Z,46.13
2023-02-07T01:03:14.599Z,17.65
2023-02-07T01:05:41.313Z,31.15
2023-02-07T01:08:08.278Z,33.63
2023-02-07T01:10:34.968Z,38.13
2023-02-07T01:13:01.942Z,25.17
2023-02-07T01:15:28.641Z,18.90
2023-02-07T01:17:55.327Z,23.65
2023-02-07T01:20:22.030Z,11.13
2023-02-07T01:22:48.707Z,7.53
2023-02-07T01:25:15.316Z,10.02
2023-02-07T01:27:42.053Z,8.23
2023-02-07T01:30:09.348Z,7.72
2023-02-07T01:32:35.983Z,8.10
2023-02-07T01:35:02.749Z,9.32
2023-02-07T01:37:29.444Z,8.77
2023-02-07T01:39:56.161Z,7.93
2023-02-07T01:42:25.143Z,13.05
2023-02-07T01:44:51.787Z,8.63
2023-02-07T01:47:22.106Z,9.02
2023-02-07T01:49:51.326Z,8.68
2023-02-07T01:52:23.296Z,9.73
2023-02-07T01:54:58.064Z,11.18
2023-02-07T01:57:25.912Z,12.57
2023-02-07T01:59:55.203Z,8.48
2023-02-07T02:02:23.998Z,8.52
2023-02-07T02:04:53.774Z,6.38
2023-02-07T02:07:20.764Z,8.02
2023-02-07T02:09:47.456Z,8.60
2023-02-07T02:12:52.400Z,8.75
2023-02-07T02:15:46.979Z,11.60
2023-02-07T02:18:13.720Z,9.23
2023-02-07T02:21:02.595Z,9.48
2023-02-07T02:24:06.919Z,7.90
2023-02-07T02:26:52.337Z,11.23
2023-02-07T02:29:40.197Z,8.25
2023-02-07T02:32:36.010Z,9.48
2023-02-07T02:35:40.463Z,8.52
2023-02-07T02:38:13.280Z,8.98
2023-02-07T02:41:06.747Z,9.07
2023-02-07T02:43:59.233Z,8.68
2023-02-07T02:48:58.681Z,10.48
2023-02-07T02:51:28.164Z,9.95
2023-02-07T02:53:56.203Z,9.05
2023-02-07T02:56:55.432Z,8.20
2023-02-07T02:59:41.311Z,8.80
2023-02-07T03:02:41.877Z,9.68
2023-02-07T03:05:14.210Z,8.25
2023-02-07T03:08:06.925Z,9.73
2023-02-07T03:10:45.515Z,10.18
2023-02-07T03:13:21.175Z,9.95
2023-02-07T03:16:13.819Z,17.90
2023-02-07T03:18:48.234Z,10.23
2023-02-07T03:21:33.479Z,9.82
2023-02-07T03:24:07.312Z,12.43
2023-02-07T03:26:35.373Z,12.50
2023-02-07T03:29:05.763Z,15.80
2023-02-07T03:31:35.943Z,13.27
2023-02-07T03:34:09.936Z,13.93
2023-02-07T03:37:08.849Z,12.10
2023-02-07T03:39:35.892Z,12.48
2023-02-07T03:42:07.854Z,14.45
2023-02-07T03:44:36.012Z,19.33
2023-02-07T03:47:02.827Z,15.05
2023-02-07T03:49:29.448Z,24.02
2023-02-07T03:51:56.156Z,20.42
2023-02-07T03:54:22.927Z,20.55
2023-02-07T03:56:49.677Z,17.35
2023-02-07T03:59:16.407Z,18.17
2023-02-07T04:01:43.498Z,21.95
2023-02-07T04:04:11.273Z,25.83
2023-02-07T04:06:39.022Z,22.85
2023-02-07T04:09:05.754Z,22.52
2023-02-07T04:11:32.393Z,22.63
2023-02-07T04:13:59.400Z,23.58
2023-02-07T04:16:26.082Z,19.20
2023-02-07T04:18:52.790Z,21.48
2023-02-07T04:21:19.979Z,23.23
2023-02-07T04:23:46.738Z,21.02
2023-02-07T04:26:13.654Z,18.65
2023-02-07T04:28:40.534Z,21.08
2023-02-07T04:31:07.513Z,18.10
2023-02-07T04:33:34.416Z,19.88
2023-02-07T04:36:04.324Z,21.40
2023-02-07T04:38:35.466Z,25.63
2023-02-07T04:41:04.735Z,31.90
2023-02-07T04:43:32.733Z,22.73
2023-02-07T04:45:59.461Z,22.83
2023-02-07T04:48:26.597Z,22.20
2023-02-07T04:50:53.680Z,21.25
2023-02-07T04:53:20.590Z,28.70
2023-02-07T04:55:54.408Z,23.98
2023-02-07T04:58:22.657Z,23.48
2023-02-07T05:00:49.642Z,28.67
2023-02-07T05:03:16.227Z,25.67
2023-02-07T05:05:44.817Z,23.15
2023-02-07T05:08:12.664Z,25.20
2023-02-07T05:10:39.800Z,26.38
2023-02-07T05:13:07.479Z,30.67
2023-02-07T05:15:34.517Z,23.58
2023-02-07T05:18:01.263Z,22.55
2023-02-07T05:20:28.044Z,26.42
2023-02-07T05:22:54.797Z,25.13
2023-02-07T05:25:21.412Z,22.90
2023-02-07T05:27:48.049Z,24.02
2023-02-07T05:30:14.908Z,22.88
2023-02-07T05:32:59.957Z,22.83
2023-02-07T05:35:26.580Z,26.48
2023-02-07T05:37:53.205Z,23.45
2023-02-07T05:40:20.013Z,22.77
2023-02-07T05:42:46.651Z,24.95
2023-02-07T05:45:13.353Z,23.63
2023-02-07T05:47:40.001Z,22.90
2023-02-07T05:50:06.834Z,23.73
2023-02-07T05:52:35.617Z,22.60
2023-02-07T05:55:02.887Z,24.33
2023-02-07T05:57:29.983Z,26.58
2023-02-07T05:59:56.687Z,24.75
2023-02-07T06:02:23.687Z,23.15
2023-02-07T06:04:50.399Z,23.02
2023-02-07T06:07:17.136Z,26.10
2023-02-07T06:09:43.969Z,24.88
2023-02-07T06:12:10.707Z,22.98
2023-02-07T06:14:37.312Z,26.25
2023-02-07T06:17:04.006Z,26.92
2023-02-07T06:19:30.701Z,29.30
2023-02-07T06:21:57.587Z,24.27
2023-02-07T06:24:24.237Z,27.23
2023-02-07T06:26:50.886Z,26.17
2023-02-07T06:29:17.701Z,25.25
2023-02-07T06:31:44.359Z,29.63
2023-02-07T06:34:11.089Z,26.08
2023-02-07T06:36:37.865Z,30.88
2023-02-07T06:39:04.958Z,30.05
2023-02-07T06:41:31.856Z,26.38
2023-02-07T06:43:58.721Z,22.45
2023-02-07T06:46:25.387Z,26.15
2023-02-07T06:48:52.122Z,26.42
2023-02-07T06:51:18.787Z,28.02
2023-02-07T06:53:45.382Z,23.63
2023-02-07T06:56:11.979Z,27.17
2023-02-07T06:58:38.564Z,28.90
2023-02-07T07:01:05.327Z,26.27
2023-02-07T07:03:32.046Z,24.23
2023-02-07T07:05:58.823Z,30.15
2023-02-07T07:08:26.825Z,30.38
2023-02-07T07:10:54.062Z,29.05
2023-02-07T07:13:23.750Z,27.60
2023-02-07T07:15:50.463Z,28.75
2023-02-07T07:18:17.176Z,31.65
2023-02-07T07:20:43.734Z,36.53
2023-02-07T07:23:10.478Z,31.38
2023-02-07T07:25:37.461Z,29.45
2023-02-07T07:28:04.655Z,26.38
2023-02-07T07:30:31.461Z,30.38
2023-02-07T07:32:58.147Z,28.35
2023-02-07T07:35:24.886Z,28.77
2023-02-07T07:37:51.518Z,27.38
2023-02-07T07:40:18.131Z,24.85
2023-02-07T07:42:44.737Z,27.80
2023-02-07T07:45:13.386Z,21.05
2023-02-07T07:47:40.099Z,29.20
2023-02-07T07:50:07.719Z,24.92
2023-02-07T07:52:35.048Z,22.30
2023-02-07T07:55:01.702Z,25.83
2023-02-07T07:57:31.429Z,24.30
2023-02-07T07:59:58.148Z,23.30
2023-02-07T08:02:25.079Z,25.40
2023-02-07T08:04:51.997Z,26.27
2023-02-07T08:07:18.938Z,25.13
2023-02-07T08:09:45.659Z,25.58
2023-02-07T08:12:12.388Z,25.15
2023-02-07T08:14:39.047Z,26.58
2023-02-07T08:17:05.616Z,24.83
2023-02-07T08:19:32.369Z,27.88
2023-02-07T08:21:59.004Z,27.45
2023-02-07T08:24:25.703Z,27.95
2023-02-07T08:26:52.323Z,25.23
2023-02-07T08:29:18.918Z,24.65
2023-02-07T08:31:45.586Z,29.90
2023-02-07T08:34:12.224Z,20.27
2023-02-07T08:36:39.615Z,20.83
2023-02-07T08:39:06.804Z,20.27
2023-02-07T08:41:33.529Z,19.88
2023-02-07T08:44:00.169Z,21.05
2023-02-07T08:46:27.008Z,27.23
2023-02-07T08:48:53.690Z,23.40
2023-02-07T08:51:20.375Z,22.77
2023-02-07T08:53:46.932Z,21.13
2023-02-07T08:56:13.494Z,18.77
2023-02-07T08:58:41.070Z,20.45
2023-02-07T09:01:11.592Z,22.45
2023-02-07T09:03:38.910Z,25.17
2023-02-07T09:06:06.245Z,21.95
2023-02-07T09:08:32.940Z,22.15
2023-02-07T09:10:59.603Z,23.60
2023-02-07T09:13:27.542Z,23.45
2023-02-07T09:15:56.223Z,19.65
2023-02-07T09:18:23.948Z,19.65
2023-02-07T09:20:50.599Z,17.25
2023-02-07T09:23:20.587Z,18.13
2023-02-07T09:25:50.132Z,18.95
2023-02-07T09:28:17.965Z,19.88
2023-02-07T09:30:46.340Z,21.80
2023-02-07T09:33:14.541Z,25.40
2023-02-07T09:35:43.879Z,19.65
2023-02-07T09:38:14.612Z,20.13
2023-02-07T09:40:42.234Z,21.10
2023-02-07T09:43:28.458Z,19.27
2023-02-07T09:45:59.769Z,19.90
2023-02-07T09:49:07.762Z,16.55
2023-02-07T09:51:36.088Z,25.67
2023-02-07T09:54:23.675Z,25.95
2023-02-07T09:56:54.736Z,22.75
2023-02-07T09:59:59.984Z,21.27
2023-02-07T10:02:52.195Z,17.73
2023-02-07T10:05:22.066Z,21.15
2023-02-07T10:07:49.278Z,19.30
2023-02-07T10:10:34.578Z,20.45
2023-02-07T10:13:28.206Z,21.75
2023-02-07T10:16:16.152Z,17.75
2023-02-07T10:18:59.078Z,19.70
2023-02-07T10:21:37.490Z,20.20
2023-02-07T10:24:25.566Z,23.45
2023-02-07T10:26:54.550Z,23.20
2023-02-07T10:29:26.948Z,19.50
2023-02-07T10:31:59.345Z,24.58
2023-02-07T10:34:33.004Z,24.83
2023-02-07T10:37:00.564Z,19.52
2023-02-07T10:39:38.845Z,18.38
2023-02-07T10:42:05.915Z,22.88
2023-02-07T10:44:33.041Z,21.88
2023-02-07T10:47:02.409Z,23.42
2023-02-07T10:49:34.875Z,19.13
2023-02-07T10:52:26.069Z,17.10
2023-02-07T10:55:01.484Z,19.60
2023-02-07T10:57:30.067Z,22.70
2023-02-07T11:00:10.921Z,17.67
2023-02-07T11:02:49.914Z,18.10
2023-02-07T11:05:16.580Z,16.10
2023-02-07T11:08:15.430Z,13.30
2023-02-07T11:10:44.625Z,13.98
2023-02-07T11:13:20.705Z,11.55
2023-02-07T11:16:04.784Z,15.15
2023-02-07T11:18:33.711Z,17.23
2023-02-07T11:21:00.638Z,17.45
2023-02-07T11:23:27.311Z,13.73
2023-02-07T11:25:56.438Z,16.85
2023-02-07T11:28:31.287Z,16.27
2023-02-07T11:31:03.369Z,15.50
2023-02-07T11:36:04.833Z,17.33
2023-02-07T11:38:36.590Z,16.98
2023-02-07T11:41:06.811Z,18.40
2023-02-07T11:43:35.815Z,15.52
2023-02-07T11:46:09.684Z,21.15
2023-02-07T11:48:40.473Z,18.40
2023-02-07T11:51:15.470Z,19.35
2023-02-07T11:53:51.348Z,18.83
2023-02-07T11:56:30.858Z,18.05
2023-02-07T11:58:58.841Z,17.20
2023-02-07T12:01:32.679Z,16.02
2023-02-07T12:04:07.561Z,14.45
2023-02-07T12:06:45.109Z,16.13
2023-02-07T12:09:24.543Z,16.77
2023-02-07T12:11:55.585Z,18.73
2023-02-07T12:14:39.262Z,17.55
2023-02-07T12:17:13.128Z,16.83
2023-02-07T12:19:53.786Z,14.68
2023-02-07T12:22:28.351Z,18.02
2023-02-07T12:25:18.125Z,16.90
2023-02-07T12:27:48.731Z,18.08
2023-02-07T12:30:44.014Z,18.48
2023-02-07T12:33:15.280Z,23.63
2023-02-07T12:36:11.283Z,18.15
2023-02-07T12:38:38.091Z,16.00
2023-02-07T12:41:28.416Z,17.98
2023-02-07T12:44:32.918Z,25.50
2023-02-07T12:47:20.340Z,18.90
2023-02-07T12:49:59.586Z,19.60
2023-02-07T12:52:26.168Z,16.30
2023-02-07T12:55:09.174Z,14.88
2023-02-07T12:57:44.953Z,13.45
2023-02-07T13:00:28.094Z,16.83
2023-02-07T13:03:12.899Z,16.92
2023-02-07T13:05:51.758Z,15.82
2023-02-07T13:08:24.661Z,15.57
2023-02-07T13:11:06.150Z,16.70
2023-02-07T13:13:49.424Z,12.43
2023-02-07T13:16:25.026Z,15.48
2023-02-07T13:19:04.750Z,17.63
2023-02-07T13:21:40.915Z,16.55
2023-02-07T13:24:13.781Z,16.05
2023-02-07T13:26:45.029Z,16.13
2023-02-07T13:29:15.157Z,12.63
2023-02-07T13:31:46.762Z,17.25
2023-02-07T13:34:21.041Z,16.08
2023-02-07T13:36:49.234Z,17.88
2023-02-07T13:39:36.026Z,12.35
2023-02-07T13:42:08.744Z,19.13
2023-02-07T13:44:56.380Z,18.23
2023-02-07T13:47:55.091Z,14.77
2023-02-07T13:51:05.324Z,15.77
2023-02-07T13:53:58.857Z,15.50
2023-02-07T13:56:53.339Z,21.15
2023-02-07T14:00:07.717Z,17.00
2023-02-07T14:02:46.582Z,28.50
2023-02-07T14:05:23.483Z,16.05
2023-02-07T14:07:58.590Z,19.48
2023-02-07T14:10:48.681Z,17.75
2023-02-07T14:13:27.265Z,16.10
2023-02-07T14:16:05.195Z,18.02
2023-02-07T14:18:43.318Z,13.60
2023-02-07T14:21:19.798Z,18.35
2023-02-07T14:24:02.310Z,18.00
2023-02-07T14:26:38.167Z,18.20
2023-02-07T14:29:23.118Z,18.52
2023-02-07T14:32:01.845Z,25.25
2023-02-07T14:34:30.823Z,19.40
2023-02-07T14:37:00.501Z,15.32
2023-02-07T14:39:32.516Z,11.55
2023-02-07T14:42:19.003Z,15.73
2023-02-07T14:44:51.196Z,22.75
2023-02-07T14:49:54.205Z,17.85
2023-02-07T14:52:33.364Z,13.48
2023-02-07T14:55:13.293Z,22.67
2023-02-07T14:58:03.281Z,19.85
2023-02-07T15:00:37.664Z,20.63
2023-02-07T15:03:14.007Z,17.63
2023-02-07T15:05:57.751Z,22.52
2023-02-07T15:08:27.443Z,18.13
2023-02-07T15:11:01.685Z,26.10
2023-02-07T15:13:47.629Z,23.42
2023-02-07T15:16:16.590Z,23.55
2023-02-07T15:19:12.404Z,21.17
2023-02-07T15:21:42.439Z,24.67
2023-02-07T15:24:19.061Z,28.85
2023-02-07T15:26:51.041Z,24.25
2023-02-07T15:29:25.443Z,24.35
2023-02-07T15:31:53.169Z,27.85
2023-02-07T15:34:31.872Z,21.83
2023-02-07T15:37:02.634Z,24.92
2023-02-07T15:39:31.544Z,22.90
2023-02-07T15:41:58.493Z,24.15
2023-02-07T15:44:30.880Z,23.83
2023-02-07T15:47:00.641Z,25.50
2023-02-07T15:49:41.233Z,23.73
2023-02-07T15:52:16.664Z,27.05
2023-02-07T15:54:49.502Z,25.60
2023-02-07T15:57:34.155Z,26.23
2023-02-07T16:00:06.272Z,26.90
2023-02-07T16:05:13.051Z,28.00
2023-02-07T16:07:40.388Z,28.58
2023-02-07T16:10:33.445Z,31.38
2023-02-07T16:13:11.769Z,26.73
2023-02-07T16:15:51.777Z,27.73
2023-02-07T16:18:35.064Z,29.88
2023-02-07T16:21:02.073Z,27.17
2023-02-07T16:23:29.445Z,35.92
2023-02-07T16:25:58.700Z,39.78
2023-02-07T16:28:25.386Z,29.63
2023-02-07T16:30:52.138Z,27.52
2023-02-07T16:33:18.829Z,32.78
2023-02-07T16:35:45.820Z,34.85
2023-02-07T16:38:12.733Z,33.75
2023-02-07T16:40:41.173Z,33.30
2023-02-07T16:43:08.945Z,33.15
2023-02-07T16:45:38.977Z,34.35
2023-02-07T16:48:13.416Z,33.83
2023-02-07T16:50:40.495Z,30.20
2023-02-07T16:53:07.487Z,39.53
2023-02-07T16:55:35.422Z,39.65
2023-02-07T16:58:05.016Z,36.65
2023-02-07T17:00:31.979Z,36.47
2023-02-07T17:02:58.597Z,32.50
2023-02-07T17:05:28.469Z,36.35
2023-02-07T17:07:55.407Z,36.88
2023-02-07T17:10:31.459Z,36.70
2023-02-07T17:12:58.518Z,41.33
2023-02-07T17:15:25.354Z,35.03
2023-02-07T17:17:53.952Z,44.80
2023-02-07T17:20:23.756Z,38.95
2023-02-07T17:22:52.065Z,39.72
2023-02-07T17:25:21.027Z,41.30
2023-02-07T17:27:48.411Z,36.30
2023-02-07T17:30:25.429Z,38.05
2023-02-07T17:32:52.560Z,39.17
2023-02-07T17:35:29.939Z,35.08
2023-02-07T17:37:56.906Z,35.95
2023-02-07T17:40:27.751Z,35.60
2023-02-07T17:42:55.333Z,37.28
2023-02-07T17:45:23.290Z,37.88
2023-02-07T17:47:56.030Z,37.25
2023-02-07T17:50:30.439Z,40.40
2023-02-07T17:53:06.874Z,41.88
2023-02-07T17:55:39.851Z,40.60
2023-02-07T17:58:06.832Z,37.13
2023-02-07T18:00:40.021Z,50.28
2023-02-07T18:03:14.129Z,44.60
2023-02-07T18:05:42.372Z,48.10
2023-02-07T18:08:19.956Z,45.40
2023-02-07T18:10:47.329Z,43.92
2023-02-07T18:13:14.230Z,45.40
2023-02-07T18:15:41.136Z,38.08
2023-02-07T18:18:13.522Z,43.53
2023-02-07T18:20:40.665Z,43.25
2023-02-07T18:23:07.695Z,44.35
2023-02-07T18:25:34.841Z,46.33
2023-02-07T18:28:01.910Z,37.85
2023-02-07T18:30:29.837Z,43.63
2023-02-07T18:32:56.702Z,41.65
2023-02-07T18:35:26.438Z,41.97
2023-02-07T18:37:53.346Z,48.85
2023-02-07T18:40:20.238Z,38.38
2023-02-07T18:42:46.955Z,40.58
2023-02-07T18:45:14.619Z,43.17
2023-02-07T18:47:42.318Z,41.90
2023-02-07T18:50:10.877Z,42.08
2023-02-07T18:52:38.161Z,45.53
2023-02-07T18:55:05.836Z,43.97
2023-02-07T18:57:32.475Z,44.20
2023-02-07T18:59:59.112Z,40.70
2023-02-07T19:02:25.923Z,42.92
2023-02-07T19:04:52.545Z,45.40
2023-02-07T19:07:19.271Z,41.35
2023-02-07T19:09:46.047Z,41.47
2023-02-07T19:12:12.776Z,42.40
2023-02-07T19:14:39.413Z,40.15
2023-02-07T19:17:06.044Z,43.28
2023-02-07T19:19:33.259Z,46.88
2023-02-07T19:22:00.420Z,46.22
2023-02-07T19:24:27.753Z,39.25
2023-02-07T19:26:57.267Z,38.25
2023-02-07T19:29:29.550Z,38.85
2023-02-07T19:31:58.463Z,39.67
2023-02-07T19:34:25.976Z,37.67
2023-02-07T19:36:52.651Z,39.30
2023-02-07T19:39:19.774Z,42.72
2023-02-07T19:41:46.621Z,42.85
2023-02-07T19:44:13.627Z,41.00
2023-02-07T19:46:40.754Z,38.85
2023-02-07T19:49:07.709Z,34.53
2023-02-07T19:51:34.354Z,36.08
2023-02-07T19:54:01.720Z,41.97
2023-02-07T19:56:33.296Z,35.53
2023-02-07T19:59:03.139Z,40.80
2023-02-07T20:01:31.073Z,40.65
2023-02-07T20:03:58.337Z,43.60
2023-02-07T20:06:29.473Z,42.40
2023-02-07T20:08:57.741Z,41.83
2023-02-07T20:11:24.595Z,39.95
2023-02-07T20:13:54.785Z,36.95
2023-02-07T20:16:26.785Z,38.92
2023-02-07T20:18:54.020Z,39.67
2023-02-07T20:21:24.333Z,37.70
2023-02-07T20:23:53.287Z,37.08
2023-02-07T20:26:25.838Z,39.00
2023-02-07T20:28:53.227Z,42.92
2023-02-07T20:31:23.032Z,42.33
2023-02-07T20:33:50.216Z,38.25
2023-02-07T20:36:18.437Z,39.67
2023-02-07T20:38:46.016Z,41.22
2023-02-07T20:41:29.761Z,44.47
2023-02-07T20:43:58.469Z,38.63
2023-02-07T20:46:26.634Z,46.33
2023-02-07T20:48:58.528Z,42.75
2023-02-07T20:51:25.984Z,44.22
2023-02-07T20:53:57.126Z,38.75
2023-02-07T20:56:24.394Z,47.57
2023-02-07T20:58:51.050Z,43.90
2023-02-07T21:01:23.377Z,40.33
2023-02-07T21:03:52.734Z,40.00
2023-02-07T21:06:20.103Z,41.80
2023-02-07T21:08:46.789Z,43.08
2023-02-07T21:11:14.763Z,39.80
2023-02-07T21:13:43.016Z,43.35
2023-02-07T21:16:09.864Z,43.15
2023-02-07T21:18:36.642Z,34.63
2023-02-07T21:21:09.298Z,33.80
2023-02-07T21:23:36.053Z,30.35
2023-02-07T21:26:07.466Z,39.08
2023-02-07T21:28:34.326Z,34.53
2023-02-07T21:31:10.480Z,33.20
2023-02-07T21:33:37.333Z,36.22
2023-02-07T21:36:13.014Z,38.85
2023-02-07T21:38:42.992Z,41.65
2023-02-07T21:41:11.086Z,38.67
2023-02-07T21:43:40.352Z,49.00
2023-02-07T21:46:12.114Z,40.08
2023-02-07T21:48:40.278Z,39.10
2023-02-07T21:51:10.381Z,40.70
2023-02-07T21:53:37.902Z,40.20
2023-02-07T21:56:08.114Z,34.35
2023-02-07T21:58:34.813Z,29.73
2023-02-07T22:01:16.147Z,37.63
2023-02-07T22:03:44.780Z,32.50
2023-02-07T22:06:12.923Z,34.45
2023-02-07T22:08:40.250Z,36.42
2023-02-07T22:11:09.855Z,38.25
2023-02-07T22:13:38.455Z,36.42
2023-02-07T22:16:05.964Z,40.47
2023-02-07T22:18:32.601Z,38.88
2023-02-07T22:21:10.072Z,38.83
2023-02-07T22:23:36.710Z,40.70
2023-02-07T22:26:03.376Z,33.65
2023-02-07T22:28:30.005Z,31.58
2023-02-07T22:30:56.790Z,38.15
2023-02-07T22:33:23.488Z,35.67
2023-02-07T22:35:50.526Z,33.35
2023-02-07T22:38:17.647Z,36.90
2023-02-07T22:40:44.612Z,35.65
2023-02-07T22:43:13.586Z,33.75
2023-02-07T22:45:46.237Z,33.83
2023-02-07T22:48:14.863Z,33.25
2023-02-07T22:50:43.188Z,35.10
2023-02-07T22:53:12.041Z,32.85
2023-02-07T22:55:40.111Z,36.08
2023-02-07T22:58:07.275Z,34.42
2023-02-07T23:00:34.864Z,32.42
2023-02-07T23:03:01.882Z,38.53
2023-02-07T23:05:28.833Z,33.72
2023-02-07T23:07:56.178Z,35.58
2023-02-07T23:10:22.897Z,41.60
2023-02-07T23:12:49.632Z,37.00
2023-02-07T23:15:16.295Z,35.85
2023-02-07T23:17:43.004Z,37.05
2023-02-07T23:20:18.078Z,40.33
2023-02-07T23:22:44.800Z,35.88
2023-02-07T23:25:16.000Z,36.70
2023-02-07T23:27:44.616Z,31.90
2023-02-07T23:30:15.931Z,36.08
2023-02-07T23:32:42.631Z,40.13
2023-02-07T23:35:09.334Z,37.67
2023-02-07T23:37:37.219Z,32.42
2023-02-07T23:40:04.181Z,33.13
2023-02-07T23:42:30.821Z,33.85
2023-02-07T23:44:57.384Z,35.25
2023-02-07T23:47:24.063Z,27.55
2023-02-07T23:49:50.661Z,32.95
2023-02-07T23:52:17.442Z,32.22
2023-02-07T23:54:44.012Z,33.20
2023-02-07T23:57:10.710Z,33.58
2023-02-07T23:59:37.474Z,33.03
